sensor_id;sensor_type;location;lat;lon;timestamp;P1;durP1;ratioP1;P2;durP2;ratioP2
9821;SDS011;4950;46.042;14.472;2023-07-29T00:01:30;7.63;;;3.30;;
9821;SDS011;4950;46.042;14.472;2023-07-29T00:03:57;6.13;;;2.60;;
9821;SDS011;4950;46.042;14.472;2023-07-29T00:06:23;5.45;;;2.80;;
9821;SDS011;4950;46.042;14.472;2023-07-29T00:08:50;4.32;;;2.85;;
9821;SDS011;4950;46.042;14.472;2023-07-29T00:11:18;7.25;;;2.97;;
9821;SDS011;4950;46.042;14.472;2023-07-29T00:13:45;5.80;;;3.03;;
9821;SDS011;4950;46.042;14.472;2023-07-29T00:16:12;7.07;;;2.92;;
9821;SDS011;4950;46.042;14.472;2023-07-29T00:18:40;4.40;;;2.60;;
9821;SDS011;4950;46.042;14.472;2023-07-29T00:21:07;10.10;;;3.42;;
9821;SDS011;4950;46.042;14.472;2023-07-29T00:23:33;4.70;;;2.63;;
9821;SDS011;4950;46.042;14.472;2023-07-29T00:26:00;5.90;;;3.67;;
9821;SDS011;4950;46.042;14.472;2023-07-29T00:28:28;4.53;;;3.17;;
9821;SDS011;4950;46.042;14.472;2023-07-29T00:30:55;4.90;;;3.03;;
9821;SDS011;4950;46.042;14.472;2023-07-29T00:33:21;4.82;;;2.80;;
9821;SDS011;4950;46.042;14.472;2023-07-29T00:35:48;3.72;;;2.35;;
9821;SDS011;4950;46.042;14.472;2023-07-29T00:38:15;6.65;;;2.97;;
9821;SDS011;4950;46.042;14.472;2023-07-29T00:40:42;4.28;;;2.72;;
9821;SDS011;4950;46.042;14.472;2023-07-29T00:43:09;3.70;;;2.40;;
9821;SDS011;4950;46.042;14.472;2023-07-29T00:45:37;5.65;;;2.88;;
9821;SDS011;4950;46.042;14.472;2023-07-29T00:48:05;4.57;;;2.90;;
9821;SDS011;4950;46.042;14.472;2023-07-29T00:50:31;5.85;;;2.72;;
9821;SDS011;4950;46.042;14.472;2023-07-29T00:52:58;4.72;;;2.60;;
9821;SDS011;4950;46.042;14.472;2023-07-29T00:55:25;5.78;;;2.90;;
9821;SDS011;4950;46.042;14.472;2023-07-29T00:57:53;5.07;;;2.60;;
9821;SDS011;4950;46.042;14.472;2023-07-29T01:00:20;5.85;;;2.60;;
9821;SDS011;4950;46.042;14.472;2023-07-29T01:02:48;4.95;;;2.95;;
9821;SDS011;4950;46.042;14.472;2023-07-29T01:05:16;4.47;;;2.67;;
9821;SDS011;4950;46.042;14.472;2023-07-29T01:07:44;6.43;;;2.60;;
9821;SDS011;4950;46.042;14.472;2023-07-29T01:10:20;6.22;;;2.58;;
9821;SDS011;4950;46.042;14.472;2023-07-29T01:12:56;5.55;;;2.92;;
9821;SDS011;4950;46.042;14.472;2023-07-29T01:15:31;7.03;;;3.33;;
9821;SDS011;4950;46.042;14.472;2023-07-29T01:18:04;6.45;;;2.63;;
9821;SDS011;4950;46.042;14.472;2023-07-29T01:20:32;4.68;;;3.00;;
9821;SDS011;4950;46.042;14.472;2023-07-29T01:23:02;6.25;;;3.03;;
9821;SDS011;4950;46.042;14.472;2023-07-29T01:25:30;5.40;;;3.33;;
9821;SDS011;4950;46.042;14.472;2023-07-29T01:27:57;5.87;;;3.27;;
9821;SDS011;4950;46.042;14.472;2023-07-29T01:30:30;5.18;;;3.55;;
9821;SDS011;4950;46.042;14.472;2023-07-29T01:33:04;4.78;;;2.85;;
9821;SDS011;4950;46.042;14.472;2023-07-29T01:35:39;5.10;;;3.03;;
9821;SDS011;4950;46.042;14.472;2023-07-29T01:38:13;7.90;;;3.35;;
9821;SDS011;4950;46.042;14.472;2023-07-29T01:40:44;5.43;;;3.22;;
9821;SDS011;4950;46.042;14.472;2023-07-29T01:43:12;7.20;;;3.17;;
9821;SDS011;4950;46.042;14.472;2023-07-29T01:45:39;5.53;;;3.55;;
9821;SDS011;4950;46.042;14.472;2023-07-29T01:48:06;6.75;;;3.53;;
9821;SDS011;4950;46.042;14.472;2023-07-29T01:50:33;6.20;;;2.72;;
9821;SDS011;4950;46.042;14.472;2023-07-29T01:53:00;5.10;;;3.35;;
9821;SDS011;4950;46.042;14.472;2023-07-29T01:55:28;5.70;;;3.40;;
9821;SDS011;4950;46.042;14.472;2023-07-29T01:57:57;5.43;;;3.42;;
9821;SDS011;4950;46.042;14.472;2023-07-29T02:00:24;6.45;;;3.17;;
9821;SDS011;4950;46.042;14.472;2023-07-29T02:02:50;6.72;;;3.25;;
9821;SDS011;4950;46.042;14.472;2023-07-29T02:05:17;4.97;;;3.25;;
9821;SDS011;4950;46.042;14.472;2023-07-29T02:07:44;5.78;;;3.50;;
9821;SDS011;4950;46.042;14.472;2023-07-29T02:10:10;6.57;;;3.80;;
9821;SDS011;4950;46.042;14.472;2023-07-29T02:12:37;9.75;;;3.47;;
9821;SDS011;4950;46.042;14.472;2023-07-29T02:15:06;6.50;;;3.70;;
9821;SDS011;4950;46.042;14.472;2023-07-29T02:17:33;7.22;;;3.22;;
9821;SDS011;4950;46.042;14.472;2023-07-29T02:20:00;7.82;;;3.70;;
9821;SDS011;4950;46.042;14.472;2023-07-29T02:22:28;5.50;;;3.50;;
9821;SDS011;4950;46.042;14.472;2023-07-29T02:24:55;7.00;;;4.05;;
9821;SDS011;4950;46.042;14.472;2023-07-29T02:27:22;8.55;;;4.32;;
9821;SDS011;4950;46.042;14.472;2023-07-29T02:29:50;6.60;;;3.92;;
9821;SDS011;4950;46.042;14.472;2023-07-29T02:32:18;7.00;;;4.03;;
9821;SDS011;4950;46.042;14.472;2023-07-29T02:34:45;7.23;;;3.53;;
9821;SDS011;4950;46.042;14.472;2023-07-29T02:37:12;8.52;;;4.00;;
9821;SDS011;4950;46.042;14.472;2023-07-29T02:39:38;6.70;;;3.58;;
9821;SDS011;4950;46.042;14.472;2023-07-29T02:42:05;6.55;;;3.97;;
9821;SDS011;4950;46.042;14.472;2023-07-29T02:44:31;6.78;;;3.30;;
9821;SDS011;4950;46.042;14.472;2023-07-29T02:46:58;6.28;;;3.60;;
9821;SDS011;4950;46.042;14.472;2023-07-29T02:49:26;5.10;;;3.38;;
9821;SDS011;4950;46.042;14.472;2023-07-29T02:51:53;7.70;;;3.47;;
9821;SDS011;4950;46.042;14.472;2023-07-29T02:54:19;5.75;;;3.60;;
9821;SDS011;4950;46.042;14.472;2023-07-29T02:56:46;12.88;;;4.10;;
9821;SDS011;4950;46.042;14.472;2023-07-29T02:59:12;5.22;;;3.50;;
9821;SDS011;4950;46.042;14.472;2023-07-29T03:01:39;4.88;;;3.10;;
9821;SDS011;4950;46.042;14.472;2023-07-29T03:04:06;8.15;;;3.33;;
9821;SDS011;4950;46.042;14.472;2023-07-29T03:06:34;5.47;;;3.33;;
9821;SDS011;4950;46.042;14.472;2023-07-29T03:09:01;8.10;;;3.50;;
9821;SDS011;4950;46.042;14.472;2023-07-29T03:11:27;5.55;;;3.10;;
9821;SDS011;4950;46.042;14.472;2023-07-29T03:13:54;6.63;;;3.10;;
9821;SDS011;4950;46.042;14.472;2023-07-29T03:16:21;9.82;;;3.65;;
9821;SDS011;4950;46.042;14.472;2023-07-29T03:18:48;7.00;;;3.50;;
9821;SDS011;4950;46.042;14.472;2023-07-29T03:21:15;7.78;;;3.60;;
9821;SDS011;4950;46.042;14.472;2023-07-29T03:23:43;7.78;;;3.55;;
9821;SDS011;4950;46.042;14.472;2023-07-29T03:26:10;7.20;;;3.27;;
9821;SDS011;4950;46.042;14.472;2023-07-29T03:28:37;7.57;;;3.28;;
9821;SDS011;4950;46.042;14.472;2023-07-29T03:31:06;6.25;;;3.25;;
9821;SDS011;4950;46.042;14.472;2023-07-29T03:33:33;6.78;;;3.30;;
9821;SDS011;4950;46.042;14.472;2023-07-29T03:36:00;12.70;;;3.50;;
9821;SDS011;4950;46.042;14.472;2023-07-29T03:38:26;8.82;;;3.47;;
9821;SDS011;4950;46.042;14.472;2023-07-29T03:40:55;7.90;;;4.00;;
9821;SDS011;4950;46.042;14.472;2023-07-29T03:43:22;6.35;;;3.38;;
9821;SDS011;4950;46.042;14.472;2023-07-29T03:45:49;6.13;;;3.58;;
9821;SDS011;4950;46.042;14.472;2023-07-29T03:48:15;5.50;;;3.50;;
9821;SDS011;4950;46.042;14.472;2023-07-29T03:50:42;6.28;;;3.35;;
9821;SDS011;4950;46.042;14.472;2023-07-29T03:53:08;7.20;;;3.97;;
9821;SDS011;4950;46.042;14.472;2023-07-29T03:55:35;6.45;;;3.42;;
9821;SDS011;4950;46.042;14.472;2023-07-29T03:58:03;7.07;;;3.97;;
9821;SDS011;4950;46.042;14.472;2023-07-29T04:00:30;6.53;;;3.97;;
9821;SDS011;4950;46.042;14.472;2023-07-29T04:02:57;8.60;;;4.10;;
9821;SDS011;4950;46.042;14.472;2023-07-29T04:05:23;7.47;;;3.92;;
9821;SDS011;4950;46.042;14.472;2023-07-29T04:07:50;8.48;;;3.80;;
9821;SDS011;4950;46.042;14.472;2023-07-29T04:10:18;6.53;;;3.80;;
9821;SDS011;4950;46.042;14.472;2023-07-29T04:12:44;5.68;;;3.50;;
9821;SDS011;4950;46.042;14.472;2023-07-29T04:15:13;5.13;;;3.53;;
9821;SDS011;4950;46.042;14.472;2023-07-29T04:17:39;6.78;;;3.83;;
9821;SDS011;4950;46.042;14.472;2023-07-29T04:20:06;5.82;;;3.72;;
9821;SDS011;4950;46.042;14.472;2023-07-29T04:22:33;5.80;;;3.72;;
9821;SDS011;4950;46.042;14.472;2023-07-29T04:25:00;7.82;;;3.92;;
9821;SDS011;4950;46.042;14.472;2023-07-29T04:27:27;7.15;;;3.78;;
9821;SDS011;4950;46.042;14.472;2023-07-29T04:29:53;5.32;;;3.47;;
9821;SDS011;4950;46.042;14.472;2023-07-29T04:32:21;5.90;;;4.05;;
9821;SDS011;4950;46.042;14.472;2023-07-29T04:34:48;5.45;;;3.58;;
9821;SDS011;4950;46.042;14.472;2023-07-29T04:37:15;5.72;;;3.40;;
9821;SDS011;4950;46.042;14.472;2023-07-29T04:39:41;6.88;;;3.58;;
9821;SDS011;4950;46.042;14.472;2023-07-29T04:42:08;4.57;;;3.20;;
9821;SDS011;4950;46.042;14.472;2023-07-29T04:44:35;11.15;;;3.78;;
9821;SDS011;4950;46.042;14.472;2023-07-29T04:47:02;7.18;;;3.88;;
9821;SDS011;4950;46.042;14.472;2023-07-29T04:49:30;5.85;;;3.47;;
9821;SDS011;4950;46.042;14.472;2023-07-29T04:51:56;7.07;;;3.60;;
9821;SDS011;4950;46.042;14.472;2023-07-29T04:54:23;8.50;;;4.07;;
9821;SDS011;4950;46.042;14.472;2023-07-29T04:56:50;5.78;;;3.78;;
9821;SDS011;4950;46.042;14.472;2023-07-29T04:59:17;9.43;;;4.10;;
9821;SDS011;4950;46.042;14.472;2023-07-29T05:01:44;7.20;;;3.80;;
9821;SDS011;4950;46.042;14.472;2023-07-29T05:04:11;9.18;;;3.97;;
9821;SDS011;4950;46.042;14.472;2023-07-29T05:06:39;6.50;;;4.15;;
9821;SDS011;4950;46.042;14.472;2023-07-29T05:09:12;8.27;;;3.50;;
9821;SDS011;4950;46.042;14.472;2023-07-29T05:11:40;5.57;;;3.78;;
9821;SDS011;4950;46.042;14.472;2023-07-29T05:14:08;6.28;;;4.30;;
9821;SDS011;4950;46.042;14.472;2023-07-29T05:16:35;8.27;;;4.10;;
9821;SDS011;4950;46.042;14.472;2023-07-29T05:19:02;6.80;;;3.33;;
9821;SDS011;4950;46.042;14.472;2023-07-29T05:21:29;7.55;;;4.32;;
9821;SDS011;4950;46.042;14.472;2023-07-29T05:23:57;7.82;;;4.63;;
9821;SDS011;4950;46.042;14.472;2023-07-29T05:26:24;7.68;;;4.30;;
9821;SDS011;4950;46.042;14.472;2023-07-29T05:28:50;7.78;;;4.00;;
9821;SDS011;4950;46.042;14.472;2023-07-29T05:31:17;6.30;;;3.85;;
9821;SDS011;4950;46.042;14.472;2023-07-29T05:33:44;7.25;;;4.32;;
9821;SDS011;4950;46.042;14.472;2023-07-29T05:36:10;9.77;;;4.18;;
9821;SDS011;4950;46.042;14.472;2023-07-29T05:38:37;6.40;;;3.60;;
9821;SDS011;4950;46.042;14.472;2023-07-29T05:41:05;9.13;;;4.40;;
9821;SDS011;4950;46.042;14.472;2023-07-29T05:43:32;7.63;;;4.53;;
9821;SDS011;4950;46.042;14.472;2023-07-29T05:45:58;6.00;;;4.18;;
9821;SDS011;4950;46.042;14.472;2023-07-29T05:48:25;7.50;;;4.63;;
9821;SDS011;4950;46.042;14.472;2023-07-29T05:50:51;5.18;;;3.63;;
9821;SDS011;4950;46.042;14.472;2023-07-29T05:53:18;7.88;;;3.97;;
9821;SDS011;4950;46.042;14.472;2023-07-29T05:55:45;7.57;;;4.30;;
9821;SDS011;4950;46.042;14.472;2023-07-29T05:58:13;9.45;;;4.40;;
9821;SDS011;4950;46.042;14.472;2023-07-29T06:00:40;6.50;;;4.00;;
9821;SDS011;4950;46.042;14.472;2023-07-29T06:03:06;12.63;;;5.13;;
9821;SDS011;4950;46.042;14.472;2023-07-29T06:05:33;8.85;;;4.15;;
9821;SDS011;4950;46.042;14.472;2023-07-29T06:07:59;6.70;;;4.32;;
9821;SDS011;4950;46.042;14.472;2023-07-29T06:10:26;7.95;;;4.18;;
9821;SDS011;4950;46.042;14.472;2023-07-29T06:12:53;5.95;;;3.83;;
9821;SDS011;4950;46.042;14.472;2023-07-29T06:15:21;5.82;;;3.92;;
9821;SDS011;4950;46.042;14.472;2023-07-29T06:17:48;6.57;;;4.00;;
9821;SDS011;4950;46.042;14.472;2023-07-29T06:20:15;5.82;;;3.90;;
9821;SDS011;4950;46.042;14.472;2023-07-29T06:22:41;8.75;;;4.22;;
9821;SDS011;4950;46.042;14.472;2023-07-29T06:25:08;5.13;;;3.85;;
9821;SDS011;4950;46.042;14.472;2023-07-29T06:27:35;8.68;;;3.58;;
9821;SDS011;4950;46.042;14.472;2023-07-29T06:30:02;9.43;;;4.15;;
9821;SDS011;4950;46.042;14.472;2023-07-29T06:32:30;9.65;;;4.20;;
9821;SDS011;4950;46.042;14.472;2023-07-29T06:34:57;6.05;;;3.47;;
9821;SDS011;4950;46.042;14.472;2023-07-29T06:37:24;6.70;;;4.18;;
9821;SDS011;4950;46.042;14.472;2023-07-29T06:39:50;13.15;;;4.20;;
9821;SDS011;4950;46.042;14.472;2023-07-29T06:42:17;8.60;;;4.47;;
9821;SDS011;4950;46.042;14.472;2023-07-29T06:44:43;6.70;;;3.70;;
9821;SDS011;4950;46.042;14.472;2023-07-29T06:47:11;9.32;;;4.32;;
9821;SDS011;4950;46.042;14.472;2023-07-29T06:49:39;9.45;;;3.80;;
9821;SDS011;4950;46.042;14.472;2023-07-29T06:52:06;6.30;;;3.60;;
9821;SDS011;4950;46.042;14.472;2023-07-29T06:54:33;6.82;;;3.25;;
9821;SDS011;4950;46.042;14.472;2023-07-29T06:57:00;6.13;;;3.53;;
9821;SDS011;4950;46.042;14.472;2023-07-29T06:59:27;11.57;;;5.18;;
9821;SDS011;4950;46.042;14.472;2023-07-29T07:01:54;6.47;;;3.92;;
9821;SDS011;4950;46.042;14.472;2023-07-29T07:04:20;8.07;;;3.85;;
9821;SDS011;4950;46.042;14.472;2023-07-29T07:06:48;7.28;;;3.75;;
9821;SDS011;4950;46.042;14.472;2023-07-29T07:09:15;8.70;;;3.97;;
9821;SDS011;4950;46.042;14.472;2023-07-29T07:11:41;6.85;;;4.03;;
9821;SDS011;4950;46.042;14.472;2023-07-29T07:14:08;5.95;;;3.22;;
9821;SDS011;4950;46.042;14.472;2023-07-29T07:16:35;7.85;;;3.72;;
9821;SDS011;4950;46.042;14.472;2023-07-29T07:19:02;7.45;;;3.50;;
9821;SDS011;4950;46.042;14.472;2023-07-29T07:21:28;6.43;;;3.58;;
9821;SDS011;4950;46.042;14.472;2023-07-29T07:23:56;7.63;;;2.95;;
9821;SDS011;4950;46.042;14.472;2023-07-29T07:26:23;6.63;;;3.33;;
9821;SDS011;4950;46.042;14.472;2023-07-29T07:28:50;6.30;;;3.45;;
9821;SDS011;4950;46.042;14.472;2023-07-29T07:31:17;9.30;;;3.78;;
9821;SDS011;4950;46.042;14.472;2023-07-29T07:33:44;6.70;;;3.72;;
9821;SDS011;4950;46.042;14.472;2023-07-29T07:36:10;8.90;;;3.63;;
9821;SDS011;4950;46.042;14.472;2023-07-29T07:38:37;5.20;;;3.30;;
9821;SDS011;4950;46.042;14.472;2023-07-29T07:41:05;7.20;;;4.07;;
9821;SDS011;4950;46.042;14.472;2023-07-29T07:43:32;8.83;;;4.03;;
9821;SDS011;4950;46.042;14.472;2023-07-29T07:45:59;6.82;;;3.55;;
9821;SDS011;4950;46.042;14.472;2023-07-29T07:48:26;12.05;;;7.00;;
9821;SDS011;4950;46.042;14.472;2023-07-29T07:50:53;12.20;;;7.50;;
9821;SDS011;4950;46.042;14.472;2023-07-29T07:53:19;11.18;;;6.45;;
9821;SDS011;4950;46.042;14.472;2023-07-29T07:55:46;8.38;;;4.22;;
9821;SDS011;4950;46.042;14.472;2023-07-29T07:58:14;7.03;;;3.78;;
9821;SDS011;4950;46.042;14.472;2023-07-29T08:00:41;6.90;;;3.60;;
9821;SDS011;4950;46.042;14.472;2023-07-29T08:03:08;6.32;;;3.97;;
9821;SDS011;4950;46.042;14.472;2023-07-29T08:05:34;6.82;;;3.38;;
9821;SDS011;4950;46.042;14.472;2023-07-29T08:08:01;7.32;;;3.83;;
9821;SDS011;4950;46.042;14.472;2023-07-29T08:10:28;7.70;;;3.75;;
9821;SDS011;4950;46.042;14.472;2023-07-29T08:12:54;6.30;;;3.45;;
9821;SDS011;4950;46.042;14.472;2023-07-29T08:15:22;7.13;;;4.22;;
9821;SDS011;4950;46.042;14.472;2023-07-29T08:17:49;7.03;;;3.60;;
9821;SDS011;4950;46.042;14.472;2023-07-29T08:20:15;7.22;;;3.58;;
9821;SDS011;4950;46.042;14.472;2023-07-29T08:22:42;6.90;;;4.05;;
9821;SDS011;4950;46.042;14.472;2023-07-29T08:25:09;6.32;;;3.58;;
9821;SDS011;4950;46.042;14.472;2023-07-29T08:27:36;7.30;;;3.55;;
9821;SDS011;4950;46.042;14.472;2023-07-29T08:30:02;7.57;;;3.30;;
9821;SDS011;4950;46.042;14.472;2023-07-29T08:32:31;6.65;;;3.22;;
9821;SDS011;4950;46.042;14.472;2023-07-29T08:34:57;8.90;;;3.83;;
9821;SDS011;4950;46.042;14.472;2023-07-29T08:37:24;9.30;;;3.70;;
9821;SDS011;4950;46.042;14.472;2023-07-29T08:39:52;7.50;;;3.58;;
9821;SDS011;4950;46.042;14.472;2023-07-29T08:42:19;6.07;;;3.45;;
9821;SDS011;4950;46.042;14.472;2023-07-29T08:44:49;5.25;;;3.20;;
9821;SDS011;4950;46.042;14.472;2023-07-29T08:47:17;9.68;;;4.63;;
9821;SDS011;4950;46.042;14.472;2023-07-29T08:49:46;7.28;;;3.58;;
9821;SDS011;4950;46.042;14.472;2023-07-29T08:52:16;8.48;;;3.67;;
9821;SDS011;4950;46.042;14.472;2023-07-29T08:54:44;8.63;;;4.15;;
9821;SDS011;4950;46.042;14.472;2023-07-29T08:57:12;6.07;;;3.38;;
9821;SDS011;4950;46.042;14.472;2023-07-29T08:59:40;7.75;;;3.17;;
9821;SDS011;4950;46.042;14.472;2023-07-29T09:02:07;9.43;;;3.08;;
9821;SDS011;4950;46.042;14.472;2023-07-29T09:04:34;6.20;;;2.92;;
9821;SDS011;4950;46.042;14.472;2023-07-29T09:07:02;6.05;;;3.00;;
9821;SDS011;4950;46.042;14.472;2023-07-29T09:09:31;6.57;;;2.90;;
9821;SDS011;4950;46.042;14.472;2023-07-29T09:11:58;6.32;;;2.88;;
9821;SDS011;4950;46.042;14.472;2023-07-29T09:14:25;8.55;;;3.40;;
9821;SDS011;4950;46.042;14.472;2023-07-29T09:16:52;6.57;;;3.10;;
9821;SDS011;4950;46.042;14.472;2023-07-29T09:19:20;7.95;;;2.92;;
9821;SDS011;4950;46.042;14.472;2023-07-29T09:21:46;5.18;;;2.88;;
9821;SDS011;4950;46.042;14.472;2023-07-29T09:24:16;9.80;;;6.00;;
9821;SDS011;4950;46.042;14.472;2023-07-29T09:26:48;6.75;;;4.10;;
9821;SDS011;4950;46.042;14.472;2023-07-29T09:29:16;6.72;;;2.70;;
9821;SDS011;4950;46.042;14.472;2023-07-29T09:31:48;4.95;;;2.45;;
9821;SDS011;4950;46.042;14.472;2023-07-29T09:34:15;7.28;;;2.47;;
9821;SDS011;4950;46.042;14.472;2023-07-29T09:36:43;3.47;;;2.13;;
9821;SDS011;4950;46.042;14.472;2023-07-29T09:39:10;5.13;;;2.28;;
9821;SDS011;4950;46.042;14.472;2023-07-29T09:41:38;5.77;;;2.27;;
9821;SDS011;4950;46.042;14.472;2023-07-29T09:44:06;7.30;;;2.17;;
9821;SDS011;4950;46.042;14.472;2023-07-29T09:46:33;3.53;;;1.90;;
9821;SDS011;4950;46.042;14.472;2023-07-29T09:49:01;3.25;;;2.25;;
9821;SDS011;4950;46.042;14.472;2023-07-29T09:51:29;4.95;;;2.10;;
9821;SDS011;4950;46.042;14.472;2023-07-29T09:53:55;6.82;;;2.10;;
9821;SDS011;4950;46.042;14.472;2023-07-29T09:56:24;3.33;;;2.00;;
9821;SDS011;4950;46.042;14.472;2023-07-29T09:58:53;3.85;;;2.00;;
9821;SDS011;4950;46.042;14.472;2023-07-29T10:01:22;4.53;;;2.20;;
9821;SDS011;4950;46.042;14.472;2023-07-29T10:03:49;3.20;;;1.98;;
9821;SDS011;4950;46.042;14.472;2023-07-29T10:06:16;4.85;;;2.95;;
9821;SDS011;4950;46.042;14.472;2023-07-29T10:08:43;3.17;;;2.22;;
9821;SDS011;4950;46.042;14.472;2023-07-29T10:11:11;3.83;;;2.15;;
9821;SDS011;4950;46.042;14.472;2023-07-29T10:13:38;3.97;;;2.08;;
9821;SDS011;4950;46.042;14.472;2023-07-29T10:16:06;6.35;;;2.50;;
9821;SDS011;4950;46.042;14.472;2023-07-29T10:18:33;5.03;;;2.08;;
9821;SDS011;4950;46.042;14.472;2023-07-29T10:21:00;4.00;;;2.45;;
9821;SDS011;4950;46.042;14.472;2023-07-29T10:23:30;5.30;;;2.08;;
9821;SDS011;4950;46.042;14.472;2023-07-29T10:26:01;3.35;;;2.13;;
9821;SDS011;4950;46.042;14.472;2023-07-29T10:28:31;3.35;;;2.03;;
9821;SDS011;4950;46.042;14.472;2023-07-29T10:30:59;5.60;;;2.30;;
9821;SDS011;4950;46.042;14.472;2023-07-29T10:33:27;4.13;;;2.20;;
9821;SDS011;4950;46.042;14.472;2023-07-29T10:35:54;2.80;;;2.15;;
9821;SDS011;4950;46.042;14.472;2023-07-29T10:38:21;4.22;;;2.17;;
9821;SDS011;4950;46.042;14.472;2023-07-29T10:40:51;3.03;;;1.90;;
9821;SDS011;4950;46.042;14.472;2023-07-29T10:43:24;2.70;;;2.10;;
9821;SDS011;4950;46.042;14.472;2023-07-29T10:45:51;3.08;;;2.08;;
9821;SDS011;4950;46.042;14.472;2023-07-29T10:51:22;2.95;;;2.10;;
9821;SDS011;4950;46.042;14.472;2023-07-29T10:53:55;3.63;;;1.90;;
9821;SDS011;4950;46.042;14.472;2023-07-29T10:56:26;3.72;;;2.05;;
9821;SDS011;4950;46.042;14.472;2023-07-29T10:58:55;3.33;;;2.20;;
9821;SDS011;4950;46.042;14.472;2023-07-29T11:01:38;2.85;;;1.90;;
9821;SDS011;4950;46.042;14.472;2023-07-29T11:04:25;4.60;;;2.30;;
9821;SDS011;4950;46.042;14.472;2023-07-29T11:09:52;2.50;;;1.85;;
9821;SDS011;4950;46.042;14.472;2023-07-29T11:12:40;3.10;;;2.10;;
9821;SDS011;4950;46.042;14.472;2023-07-29T11:15:13;4.57;;;2.10;;
9821;SDS011;4950;46.042;14.472;2023-07-29T11:17:42;4.78;;;2.30;;
9821;SDS011;4950;46.042;14.472;2023-07-29T11:20:12;4.07;;;2.17;;
9821;SDS011;4950;46.042;14.472;2023-07-29T11:22:39;3.83;;;2.20;;
9821;SDS011;4950;46.042;14.472;2023-07-29T11:25:08;5.50;;;2.78;;
9821;SDS011;4950;46.042;14.472;2023-07-29T11:27:36;3.15;;;2.10;;
9821;SDS011;4950;46.042;14.472;2023-07-29T11:30:03;2.92;;;2.05;;
9821;SDS011;4950;46.042;14.472;2023-07-29T11:32:31;4.82;;;2.67;;
9821;SDS011;4950;46.042;14.472;2023-07-29T11:35:01;3.97;;;2.20;;
9821;SDS011;4950;46.042;14.472;2023-07-29T11:37:30;4.28;;;2.17;;
9821;SDS011;4950;46.042;14.472;2023-07-29T11:39:57;3.78;;;2.45;;
9821;SDS011;4950;46.042;14.472;2023-07-29T11:42:24;4.38;;;2.58;;
9821;SDS011;4950;46.042;14.472;2023-07-29T11:44:52;3.85;;;2.40;;
9821;SDS011;4950;46.042;14.472;2023-07-29T11:47:19;4.95;;;2.75;;
9821;SDS011;4950;46.042;14.472;2023-07-29T11:49:46;5.78;;;2.65;;
9821;SDS011;4950;46.042;14.472;2023-07-29T11:52:13;5.18;;;2.30;;
9821;SDS011;4950;46.042;14.472;2023-07-29T11:54:46;4.43;;;2.58;;
9821;SDS011;4950;46.042;14.472;2023-07-29T11:57:13;5.18;;;2.50;;
9821;SDS011;4950;46.042;14.472;2023-07-29T11:59:41;7.43;;;2.67;;
9821;SDS011;4950;46.042;14.472;2023-07-29T12:02:09;5.10;;;2.60;;
9821;SDS011;4950;46.042;14.472;2023-07-29T12:04:38;4.70;;;1.88;;
9821;SDS011;4950;46.042;14.472;2023-07-29T12:07:06;3.30;;;2.20;;
9821;SDS011;4950;46.042;14.472;2023-07-29T12:09:33;4.78;;;2.47;;
9821;SDS011;4950;46.042;14.472;2023-07-29T12:12:01;6.60;;;2.45;;
9821;SDS011;4950;46.042;14.472;2023-07-29T12:14:29;3.90;;;2.25;;
9821;SDS011;4950;46.042;14.472;2023-07-29T12:16:56;6.70;;;2.58;;
9821;SDS011;4950;46.042;14.472;2023-07-29T12:19:30;4.47;;;2.15;;
9821;SDS011;4950;46.042;14.472;2023-07-29T12:21:58;6.55;;;2.33;;
9821;SDS011;4950;46.042;14.472;2023-07-29T12:24:24;10.95;;;2.35;;
9821;SDS011;4950;46.042;14.472;2023-07-29T12:26:51;3.92;;;2.38;;
9821;SDS011;4950;46.042;14.472;2023-07-29T12:29:19;6.10;;;2.10;;
9821;SDS011;4950;46.042;14.472;2023-07-29T12:31:46;4.30;;;2.15;;
9821;SDS011;4950;46.042;14.472;2023-07-29T12:34:16;3.70;;;2.40;;
9821;SDS011;4950;46.042;14.472;2023-07-29T12:36:44;5.22;;;2.25;;
9821;SDS011;4950;46.042;14.472;2023-07-29T12:39:16;6.63;;;2.22;;
9821;SDS011;4950;46.042;14.472;2023-07-29T12:41:43;4.20;;;2.10;;
9821;SDS011;4950;46.042;14.472;2023-07-29T12:44:10;4.13;;;2.40;;
9821;SDS011;4950;46.042;14.472;2023-07-29T12:46:38;3.83;;;2.25;;
9821;SDS011;4950;46.042;14.472;2023-07-29T12:49:05;4.78;;;2.35;;
9821;SDS011;4950;46.042;14.472;2023-07-29T12:51:32;4.53;;;2.53;;
9821;SDS011;4950;46.042;14.472;2023-07-29T12:53:59;3.40;;;2.20;;
9821;SDS011;4950;46.042;14.472;2023-07-29T12:56:26;3.88;;;2.10;;
9821;SDS011;4950;46.042;14.472;2023-07-29T12:58:52;5.80;;;2.33;;
9821;SDS011;4950;46.042;14.472;2023-07-29T13:01:19;9.23;;;2.20;;
9821;SDS011;4950;46.042;14.472;2023-07-29T13:03:47;6.57;;;2.30;;
9821;SDS011;4950;46.042;14.472;2023-07-29T13:06:14;4.05;;;2.42;;
9821;SDS011;4950;46.042;14.472;2023-07-29T13:08:41;5.53;;;2.65;;
9821;SDS011;4950;46.042;14.472;2023-07-29T13:11:08;5.78;;;2.70;;
9821;SDS011;4950;46.042;14.472;2023-07-29T13:13:35;3.58;;;2.35;;
9821;SDS011;4950;46.042;14.472;2023-07-29T13:16:01;4.57;;;2.40;;
9821;SDS011;4950;46.042;14.472;2023-07-29T13:18:28;6.65;;;2.38;;
9821;SDS011;4950;46.042;14.472;2023-07-29T13:20:56;5.68;;;2.15;;
9821;SDS011;4950;46.042;14.472;2023-07-29T13:23:24;4.03;;;2.15;;
9821;SDS011;4950;46.042;14.472;2023-07-29T13:25:51;4.70;;;2.45;;
9821;SDS011;4950;46.042;14.472;2023-07-29T13:28:17;5.38;;;2.75;;
9821;SDS011;4950;46.042;14.472;2023-07-29T13:30:44;6.07;;;2.55;;
9821;SDS011;4950;46.042;14.472;2023-07-29T13:33:11;3.55;;;2.00;;
9821;SDS011;4950;46.042;14.472;2023-07-29T13:35:38;10.13;;;2.53;;
9821;SDS011;4950;46.042;14.472;2023-07-29T13:38:06;6.80;;;1.98;;
9821;SDS011;4950;46.042;14.472;2023-07-29T13:40:32;4.70;;;2.15;;
9821;SDS011;4950;46.042;14.472;2023-07-29T13:42:59;3.92;;;2.50;;
9821;SDS011;4950;46.042;14.472;2023-07-29T13:45:26;7.40;;;2.65;;
9821;SDS011;4950;46.042;14.472;2023-07-29T13:47:52;6.25;;;2.25;;
9821;SDS011;4950;46.042;14.472;2023-07-29T13:50:19;5.32;;;2.53;;
9821;SDS011;4950;46.042;14.472;2023-07-29T13:52:46;3.80;;;2.38;;
9821;SDS011;4950;46.042;14.472;2023-07-29T13:55:14;6.20;;;2.35;;
9821;SDS011;4950;46.042;14.472;2023-07-29T13:57:40;4.65;;;2.55;;
9821;SDS011;4950;46.042;14.472;2023-07-29T14:00:07;7.88;;;2.53;;
9821;SDS011;4950;46.042;14.472;2023-07-29T14:02:34;4.35;;;2.30;;
9821;SDS011;4950;46.042;14.472;2023-07-29T14:05:00;8.02;;;2.40;;
9821;SDS011;4950;46.042;14.472;2023-07-29T14:07:27;4.43;;;2.30;;
9821;SDS011;4950;46.042;14.472;2023-07-29T14:09:54;6.97;;;1.92;;
9821;SDS011;4950;46.042;14.472;2023-07-29T14:12:22;6.70;;;2.10;;
9821;SDS011;4950;46.042;14.472;2023-07-29T14:14:48;3.67;;;2.30;;
9821;SDS011;4950;46.042;14.472;2023-07-29T14:17:15;5.00;;;2.72;;
9821;SDS011;4950;46.042;14.472;2023-07-29T14:19:42;5.82;;;2.40;;
9821;SDS011;4950;46.042;14.472;2023-07-29T14:22:08;4.57;;;2.17;;
9821;SDS011;4950;46.042;14.472;2023-07-29T14:24:35;5.60;;;2.10;;
9821;SDS011;4950;46.042;14.472;2023-07-29T14:27:02;5.93;;;2.22;;
9821;SDS011;4950;46.042;14.472;2023-07-29T14:29:30;5.53;;;2.22;;
9821;SDS011;4950;46.042;14.472;2023-07-29T14:31:57;5.40;;;2.40;;
9821;SDS011;4950;46.042;14.472;2023-07-29T14:34:23;8.18;;;2.65;;
9821;SDS011;4950;46.042;14.472;2023-07-29T14:36:50;7.15;;;2.38;;
9821;SDS011;4950;46.042;14.472;2023-07-29T14:39:17;9.57;;;2.38;;
9821;SDS011;4950;46.042;14.472;2023-07-29T14:41:43;4.68;;;2.20;;
9821;SDS011;4950;46.042;14.472;2023-07-29T14:44:10;8.77;;;2.42;;
9821;SDS011;4950;46.042;14.472;2023-07-29T14:46:38;4.80;;;2.50;;
9821;SDS011;4950;46.042;14.472;2023-07-29T14:49:05;6.97;;;2.75;;
9821;SDS011;4950;46.042;14.472;2023-07-29T14:51:31;6.60;;;2.78;;
9821;SDS011;4950;46.042;14.472;2023-07-29T14:53:58;6.45;;;2.30;;
9821;SDS011;4950;46.042;14.472;2023-07-29T14:56:24;6.80;;;2.53;;
9821;SDS011;4950;46.042;14.472;2023-07-29T14:58:51;5.72;;;2.40;;
9821;SDS011;4950;46.042;14.472;2023-07-29T15:01:18;9.85;;;2.60;;
9821;SDS011;4950;46.042;14.472;2023-07-29T15:03:45;9.07;;;2.17;;
9821;SDS011;4950;46.042;14.472;2023-07-29T15:06:12;8.13;;;2.92;;
9821;SDS011;4950;46.042;14.472;2023-07-29T15:08:39;6.03;;;2.47;;